Time;durP1;ratioP1;P1;durP2;ratioP2;P2;SDS_P1;SDS_P2;PMS_P1;PMS_P2;Temp;Humidity;BMP_temperature;BMP_pressure;BME280_temperature;BME280_humidity;BME280_pressure;Samples;Min_cycle;Max_cycle;Signal;HPM_P1;HPM_P2
2024/03/26 00:01:27;;;;;;;7.05;3.65;;;;;;;;;;5041992;28;20799;-75
2024/03/26 00:03:52;;;;;;;7.45;4.43;;;;;;;;;;5045343;28;20043;-75
2024/03/26 00:06:17;;;;;;;8.95;4.82;;;;;;;;;;5042739;28;20051;-76
2024/03/26 00:08:42;;;;;;;7.05;3.78;;;;;;;;;;5046849;28;20052;-76
2024/03/26 00:11:07;;;;;;;9.00;4.45;;;;;;;;;;5031335;28;20021;-75
2024/03/26 00:13:32;;;;;;;8.15;4.07;;;;;;;;;;5045775;28;20401;-76
2024/03/26 00:15:58;;;;;;;8.95;4.10;;;;;;;;;;5045262;28;20047;-75
2024/03/26 00:18:23;;;;;;;7.32;4.25;;;;;;;;;;5045288;28;20041;-76
2024/03/26 00:20:48;;;;;;;12.25;5.35;;;;;;;;;;5044442;28;20032;-75
2024/03/26 00:23:16;;;;;;;10.10;4.97;;;;;;;;;;5046821;28;20036;-75
2024/03/26 00:25:41;;;;;;;12.27;5.45;;;;;;;;;;5045537;28;20028;-75
2024/03/26 00:28:06;;;;;;;10.05;5.07;;;;;;;;;;5031689;28;20085;-75
2024/03/26 00:30:32;;;;;;;6.85;4.00;;;;;;;;;;5042457;28;20529;-75
2024/03/26 00:32:57;;;;;;;9.98;4.70;;;;;;;;;;5046403;28;20021;-75
2024/03/26 00:35:22;;;;;;;7.55;4.35;;;;;;;;;;5027183;28;20041;-75
2024/03/26 00:37:48;;;;;;;8.45;4.95;;;;;;;;;;5047339;28;20031;-75
2024/03/26 00:40:13;;;;;;;11.90;4.32;;;;;;;;;;5041189;28;20037;-75
2024/03/26 00:42:38;;;;;;;7.35;4.05;;;;;;;;;;5027071;28;20032;-75
2024/03/26 00:45:03;;;;;;;9.05;3.75;;;;;;;;;;5044652;28;20040;-75
2024/03/26 00:47:28;;;;;;;9.00;4.28;;;;;;;;;;5029848;28;20039;-76
2024/03/26 00:49:54;;;;;;;7.93;4.35;;;;;;;;;;5044854;28;20025;-75
2024/03/26 00:52:19;;;;;;;6.93;4.03;;;;;;;;;;5043820;28;20028;-75
2024/03/26 00:54:44;;;;;;;6.75;3.97;;;;;;;;;;5046579;28;20020;-76
2024/03/26 00:57:09;;;;;;;7.95;4.15;;;;;;;;;;5047918;28;20041;-76
2024/03/26 00:59:34;;;;;;;7.43;3.72;;;;;;;;;;5028958;28;20029;-76
2024/03/26 01:02:00;;;;;;;8.50;4.65;;;;;;;;;;5045545;28;20572;-76
2024/03/26 01:04:25;;;;;;;8.20;3.90;;;;;;;;;;5045578;28;20064;-76
2024/03/26 01:06:50;;;;;;;7.10;4.03;;;;;;;;;;5044431;28;20115;-76
2024/03/26 01:09:15;;;;;;;8.02;3.78;;;;;;;;;;5043813;28;20051;-76
2024/03/26 01:11:40;;;;;;;9.98;4.65;;;;;;;;;;5040839;28;20512;-76
2024/03/26 01:14:06;;;;;;;8.82;4.35;;;;;;;;;;5046023;28;20029;-76
2024/03/26 01:16:31;;;;;;;7.95;4.35;;;;;;;;;;5040779;28;20070;-76
2024/03/26 01:18:56;;;;;;;9.13;4.55;;;;;;;;;;5043783;28;20199;-75
2024/03/26 01:21:21;;;;;;;7.93;4.03;;;;;;;;;;5043777;28;20044;-75
2024/03/26 01:23:46;;;;;;;8.27;4.05;;;;;;;;;;5042133;28;20037;-76
2024/03/26 01:26:12;;;;;;;8.05;4.03;;;;;;;;;;5043235;28;20492;-75
2024/03/26 01:28:37;;;;;;;8.80;5.20;;;;;;;;;;5040927;28;20025;-75
2024/03/26 01:31:02;;;;;;;8.07;4.72;;;;;;;;;;5043221;28;20029;-75
2024/03/26 01:33:27;;;;;;;9.88;5.22;;;;;;;;;;5043714;28;20132;-75
2024/03/26 01:35:53;;;;;;;8.68;4.72;;;;;;;;;;5043752;28;20083;-75
2024/03/26 01:38:18;;;;;;;10.15;5.00;;;;;;;;;;5044138;28;20033;-75
2024/03/26 01:40:43;;;;;;;11.60;5.43;;;;;;;;;;5040946;28;20052;-75
2024/03/26 01:43:09;;;;;;;9.30;5.03;;;;;;;;;;5044351;28;20045;-75
2024/03/26 01:45:34;;;;;;;10.02;4.63;;;;;;;;;;5044659;28;20099;-75
2024/03/26 01:47:59;;;;;;;10.80;4.90;;;;;;;;;;5042149;28;20033;-75
2024/03/26 01:50:25;;;;;;;8.57;4.47;;;;;;;;;;5029988;28;20037;-75
2024/03/26 01:52:50;;;;;;;10.00;5.05;;;;;;;;;;5041545;28;20514;-76
2024/03/26 01:55:16;;;;;;;9.45;4.55;;;;;;;;;;5042926;28;20103;-75
2024/03/26 01:57:42;;;;;;;10.38;4.72;;;;;;;;;;5041418;28;20112;-75
2024/03/26 02:00:07;;;;;;;9.43;5.53;;;;;;;;;;5026786;28;20119;-75
2024/03/26 02:02:38;;;;;;;8.55;5.25;;;;;;;;;;5043962;28;20036;-75
2024/03/26 02:05:04;;;;;;;8.70;4.53;;;;;;;;;;5039530;28;20091;-75
2024/03/26 02:07:29;;;;;;;10.63;5.10;;;;;;;;;;5041225;28;20498;-75
2024/03/26 02:09:54;;;;;;;11.10;4.93;;;;;;;;;;5042204;28;20029;-76
2024/03/26 02:12:20;;;;;;;8.63;4.97;;;;;;;;;;5045963;28;20109;-75
2024/03/26 02:14:45;;;;;;;10.80;5.35;;;;;;;;;;5043073;28;20033;-75
2024/03/26 02:17:10;;;;;;;9.90;4.50;;;;;;;;;;5040132;28;20042;-75
2024/03/26 02:19:35;;;;;;;11.40;4.78;;;;;;;;;;5021529;28;20087;-75
2024/03/26 02:22:00;;;;;;;9.15;5.10;;;;;;;;;;5042302;28;20025;-76
2024/03/26 02:24:26;;;;;;;9.88;5.50;;;;;;;;;;5043525;28;20028;-75
2024/03/26 02:26:51;;;;;;;7.50;4.53;;;;;;;;;;5026478;28;20513;-75
2024/03/26 02:29:16;;;;;;;9.48;4.90;;;;;;;;;;5029012;28;20410;-75
2024/03/26 02:31:41;;;;;;;9.85;5.07;;;;;;;;;;5043840;28;20051;-76
2024/03/26 02:34:06;;;;;;;11.10;6.03;;;;;;;;;;5043582;28;20032;-75
2024/03/26 02:36:32;;;;;;;10.32;5.40;;;;;;;;;;5027636;28;20032;-75
2024/03/26 02:38:57;;;;;;;9.95;5.47;;;;;;;;;;5031800;28;20032;-76
2024/03/26 02:41:22;;;;;;;9.30;5.10;;;;;;;;;;5042339;28;20051;-76
2024/03/26 02:43:47;;;;;;;10.57;4.93;;;;;;;;;;5044166;28;20493;-76
2024/03/26 02:46:13;;;;;;;8.80;4.82;;;;;;;;;;5038836;28;20514;-76
2024/03/26 02:48:38;;;;;;;10.00;4.30;;;;;;;;;;5042507;28;20653;-75
2024/03/26 02:51:03;;;;;;;8.55;4.50;;;;;;;;;;5042456;28;20452;-75
2024/03/26 02:53:28;;;;;;;8.45;4.07;;;;;;;;;;5041375;28;20547;-75
2024/03/26 02:55:54;;;;;;;7.20;3.97;;;;;;;;;;5042443;28;20035;-75
2024/03/26 02:58:19;;;;;;;9.57;4.90;;;;;;;;;;5038405;28;20131;-76
2024/03/26 03:00:44;;;;;;;9.73;4.35;;;;;;;;;;5038338;28;20063;-75
2024/03/26 03:03:09;;;;;;;8.68;4.10;;;;;;;;;;5046207;28;20075;-75
2024/03/26 03:05:35;;;;;;;8.57;4.70;;;;;;;;;;5041903;28;20029;-75
2024/03/26 03:08:00;;;;;;;7.30;4.57;;;;;;;;;;5028604;28;20023;-76
2024/03/26 03:10:25;;;;;;;9.18;4.45;;;;;;;;;;5040816;28;20025;-76
2024/03/26 03:12:51;;;;;;;8.05;4.40;;;;;;;;;;5042682;28;20029;-76
2024/03/26 03:15:16;;;;;;;9.05;4.43;;;;;;;;;;5038215;28;20025;-75
2024/03/26 03:17:41;;;;;;;8.63;4.47;;;;;;;;;;5039909;28;20519;-76
2024/03/26 03:20:11;;;;;;;8.68;4.60;;;;;;;;;;5027313;28;20037;-75
2024/03/26 03:22:36;;;;;;;10.18;4.75;;;;;;;;;;5041004;28;20033;-75
2024/03/26 03:25:01;;;;;;;9.15;4.65;;;;;;;;;;5040905;28;20041;-75
2024/03/26 03:27:27;;;;;;;13.75;7.93;;;;;;;;;;5028376;28;20034;-75
2024/03/26 03:29:52;;;;;;;12.65;7.03;;;;;;;;;;5039687;28;20049;-75
2024/03/26 03:32:17;;;;;;;14.48;7.80;;;;;;;;;;5041042;28;20029;-75
2024/03/26 03:34:42;;;;;;;16.67;7.38;;;;;;;;;;5043545;28;20640;-75
2024/03/26 03:37:08;;;;;;;14.38;7.38;;;;;;;;;;5042957;28;20481;-75
2024/03/26 03:39:33;;;;;;;12.60;7.18;;;;;;;;;;5041013;28;20049;-75
2024/03/26 03:41:58;;;;;;;11.60;6.82;;;;;;;;;;5038179;28;20034;-75
2024/03/26 03:44:24;;;;;;;13.43;7.13;;;;;;;;;;5043942;28;20033;-75
2024/03/26 03:46:49;;;;;;;12.80;7.38;;;;;;;;;;5039650;28;20524;-75
2024/03/26 03:49:14;;;;;;;14.13;7.53;;;;;;;;;;5040295;28;20531;-76
2024/03/26 03:51:39;;;;;;;14.55;6.80;;;;;;;;;;5042431;28;20500;-76
2024/03/26 03:54:04;;;;;;;13.18;7.43;;;;;;;;;;5040775;28;20021;-75
2024/03/26 03:56:30;;;;;;;14.60;8.43;;;;;;;;;;5037981;28;20036;-76
2024/03/26 03:58:55;;;;;;;11.48;6.57;;;;;;;;;;5040184;28;20063;-76
2024/03/26 04:01:20;;;;;;;14.95;7.90;;;;;;;;;;5039739;28;20037;-75
2024/03/26 04:03:45;;;;;;;13.90;7.57;;;;;;;;;;5041769;28;20037;-75
2024/03/26 04:06:11;;;;;;;14.10;7.90;;;;;;;;;;5042098;28;20040;-75
2024/03/26 04:08:36;;;;;;;14.32;8.27;;;;;;;;;;5043475;28;20026;-75
2024/03/26 04:11:01;;;;;;;13.38;6.97;;;;;;;;;;5040022;28;20225;-75
2024/03/26 04:13:26;;;;;;;16.63;8.75;;;;;;;;;;5045884;28;20036;-75
2024/03/26 04:15:52;;;;;;;13.02;7.60;;;;;;;;;;5041454;28;20036;-76
2024/03/26 04:18:17;;;;;;;15.38;8.23;;;;;;;;;;5046597;28;20033;-75
2024/03/26 04:20:42;;;;;;;11.32;6.68;;;;;;;;;;5044576;28;20040;-76
2024/03/26 04:23:07;;;;;;;15.40;7.10;;;;;;;;;;5048109;28;20025;-76
2024/03/26 04:25:33;;;;;;;12.25;6.72;;;;;;;;;;5049462;28;20033;-76
2024/03/26 04:27:58;;;;;;;12.32;7.95;;;;;;;;;;5028512;28;20043;-76
2024/03/26 04:30:23;;;;;;;12.68;7.10;;;;;;;;;;5045588;28;20037;-76
2024/03/26 04:32:48;;;;;;;13.40;6.90;;;;;;;;;;5044396;28;20029;-76
2024/03/26 04:35:13;;;;;;;11.65;6.78;;;;;;;;;;5025760;28;20743;-76
2024/03/26 04:37:38;;;;;;;14.52;7.43;;;;;;;;;;5044832;28;20498;-76
2024/03/26 04:40:07;;;;;;;11.68;6.63;;;;;;;;;;5044555;28;20036;-76
2024/03/26 04:42:32;;;;;;;12.68;6.82;;;;;;;;;;5042430;28;20076;-76
2024/03/26 04:44:57;;;;;;;15.23;8.18;;;;;;;;;;5046516;28;20021;-76
2024/03/26 04:47:23;;;;;;;12.85;7.47;;;;;;;;;;5041082;28;20036;-76
2024/03/26 04:49:48;;;;;;;13.50;7.47;;;;;;;;;;5044350;28;20025;-76
2024/03/26 04:52:13;;;;;;;14.77;7.82;;;;;;;;;;5042841;28;20033;-75
2024/03/26 04:54:38;;;;;;;15.70;8.63;;;;;;;;;;5043575;28;20040;-76
2024/03/26 04:57:03;;;;;;;12.25;7.13;;;;;;;;;;5044423;28;20033;-75
2024/03/26 04:59:29;;;;;;;13.45;7.20;;;;;;;;;;5040695;28;20037;-75
2024/03/26 05:01:54;;;;;;;13.40;7.97;;;;;;;;;;5028283;28;20020;-75
2024/03/26 05:04:19;;;;;;;11.95;7.28;;;;;;;;;;5044943;28;20533;-76
2024/03/26 05:06:45;;;;;;;12.73;7.20;;;;;;;;;;5042080;28;20100;-75
2024/03/26 05:09:10;;;;;;;11.27;6.43;;;;;;;;;;5044439;28;20037;-75
2024/03/26 05:11:35;;;;;;;12.52;6.13;;;;;;;;;;5044591;28;20035;-76
2024/03/26 05:14:01;;;;;;;12.82;6.78;;;;;;;;;;5044817;28;20029;-75
2024/03/26 05:16:26;;;;;;;10.88;5.60;;;;;;;;;;5024780;28;20031;-76
2024/03/26 05:18:51;;;;;;;8.38;5.28;;;;;;;;;;5043995;28;20117;-76
2024/03/26 05:21:16;;;;;;;10.93;6.15;;;;;;;;;;5027200;28;20032;-75
2024/03/26 05:23:42;;;;;;;10.68;5.68;;;;;;;;;;5042362;28;20057;-75
2024/03/26 05:26:07;;;;;;;14.50;8.82;;;;;;;;;;5044449;28;20056;-76
2024/03/26 05:28:33;;;;;;;31.50;17.55;;;;;;;;;;5048209;28;20028;-75
2024/03/26 05:31:13;;;;;;;26.02;15.48;;;;;;;;;;5051545;28;20504;-75
2024/03/26 05:33:38;;;;;;;16.13;8.93;;;;;;;;;;5045698;28;20776;-76
2024/03/26 05:36:04;;;;;;;12.57;8.27;;;;;;;;;;5044215;28;20040;-75
2024/03/26 05:38:29;;;;;;;11.48;7.15;;;;;;;;;;5047930;28;20028;-76
2024/03/26 05:40:54;;;;;;;11.73;7.45;;;;;;;;;;5050099;28;20578;-76
2024/03/26 05:43:19;;;;;;;17.55;10.60;;;;;;;;;;5046782;28;20037;-76
2024/03/26 05:45:45;;;;;;;14.98;9.18;;;;;;;;;;5047804;28;20044;-75
2024/03/26 05:48:10;;;;;;;11.93;6.20;;;;;;;;;;5046360;28;20033;-75
2024/03/26 05:50:35;;;;;;;10.73;6.20;;;;;;;;;;5049553;28;20030;-76
2024/03/26 05:53:04;;;;;;;11.90;5.85;;;;;;;;;;5046392;28;20032;-76
2024/03/26 05:55:29;;;;;;;8.35;5.80;;;;;;;;;;5041593;28;20034;-75
2024/03/26 05:57:54;;;;;;;8.93;5.47;;;;;;;;;;5046264;28;20058;-76
2024/03/26 06:00:19;;;;;;;10.80;6.05;;;;;;;;;;5042880;28;20037;-75
2024/03/26 06:02:44;;;;;;;10.57;6.70;;;;;;;;;;5047306;28;20043;-76
2024/03/26 06:05:10;;;;;;;18.55;11.95;;;;;;;;;;5045108;28;20072;-75
2024/03/26 06:07:35;;;;;;;13.05;8.25;;;;;;;;;;5028517;28;20048;-75
2024/03/26 06:10:00;;;;;;;12.00;7.07;;;;;;;;;;5027995;28;20033;-75
2024/03/26 06:12:25;;;;;;;11.88;7.47;;;;;;;;;;5038860;28;20075;-76
2024/03/26 06:14:50;;;;;;;12.70;7.47;;;;;;;;;;5042930;28;20053;-76
2024/03/26 06:17:15;;;;;;;12.35;6.97;;;;;;;;;;5043472;28;20085;-76
2024/03/26 06:19:41;;;;;;;11.20;7.15;;;;;;;;;;5039376;28;20044;-76
2024/03/26 06:22:06;;;;;;;13.32;7.25;;;;;;;;;;5042898;28;20029;-76
2024/03/26 06:24:31;;;;;;;10.27;6.57;;;;;;;;;;5027007;28;20056;-76
2024/03/26 06:26:56;;;;;;;14.30;9.05;;;;;;;;;;5048234;28;20035;-76
2024/03/26 06:29:21;;;;;;;17.88;9.85;;;;;;;;;;5028551;28;20025;-75
2024/03/26 06:31:47;;;;;;;16.42;9.05;;;;;;;;;;5043784;28;20433;-76
2024/03/26 06:34:12;;;;;;;18.80;10.45;;;;;;;;;;5045192;28;20029;-75
2024/03/26 06:36:37;;;;;;;14.57;9.27;;;;;;;;;;5041387;28;20053;-76
2024/03/26 06:39:04;;;;;;;11.88;7.30;;;;;;;;;;5047699;28;20036;-75
2024/03/26 06:41:29;;;;;;;13.00;7.72;;;;;;;;;;5039801;28;20029;-76
2024/03/26 06:43:54;;;;;;;10.50;6.47;;;;;;;;;;5044225;28;20029;-76
2024/03/26 06:46:19;;;;;;;9.68;6.65;;;;;;;;;;5041660;28;20099;-76
2024/03/26 06:48:44;;;;;;;12.05;7.93;;;;;;;;;;5025437;28;20103;-76
2024/03/26 06:51:10;;;;;;;12.15;7.13;;;;;;;;;;5043740;28;20021;-76
2024/03/26 06:53:35;;;;;;;12.48;7.63;;;;;;;;;;5044934;28;20454;-76
2024/03/26 06:56:00;;;;;;;10.63;6.40;;;;;;;;;;5041280;28;20039;-76
2024/03/26 06:58:25;;;;;;;11.07;6.50;;;;;;;;;;5038669;28;20036;-75
2024/03/26 07:00:51;;;;;;;9.80;6.45;;;;;;;;;;5039760;28;20489;-76
2024/03/26 07:03:16;;;;;;;9.90;7.00;;;;;;;;;;5024356;28;20101;-76
2024/03/26 07:05:41;;;;;;;9.65;6.15;;;;;;;;;;5041620;28;20033;-75
2024/03/26 07:08:06;;;;;;;10.52;7.38;;;;;;;;;;5047401;28;20043;-76
2024/03/26 07:10:32;;;;;;;12.77;8.48;;;;;;;;;;5038770;28;20033;-76
2024/03/26 07:12:57;;;;;;;16.17;9.80;;;;;;;;;;5040389;28;20461;-76
2024/03/26 07:15:22;;;;;;;13.43;8.32;;;;;;;;;;5045032;28;20036;-75
2024/03/26 07:17:47;;;;;;;12.75;6.90;;;;;;;;;;5034087;28;20393;-76
2024/03/26 07:20:12;;;;;;;8.77;5.85;;;;;;;;;;5040557;28;20060;-75
2024/03/26 07:22:38;;;;;;;6.78;4.60;;;;;;;;;;5040899;28;20112;-76
2024/03/26 07:25:04;;;;;;;8.50;5.28;;;;;;;;;;5042125;28;20181;-76
2024/03/26 07:27:29;;;;;;;7.72;4.97;;;;;;;;;;5041191;28;20497;-76
2024/03/26 07:29:54;;;;;;;6.53;4.80;;;;;;;;;;5040063;28;20037;-76
2024/03/26 07:32:19;;;;;;;12.30;6.70;;;;;;;;;;5025795;28;20033;-75
2024/03/26 07:34:44;;;;;;;8.75;5.75;;;;;;;;;;5042614;28;20036;-75
2024/03/26 07:37:10;;;;;;;8.30;5.22;;;;;;;;;;5042000;28;20465;-76
2024/03/26 07:39:35;;;;;;;9.15;5.40;;;;;;;;;;5041710;28;20043;-75
2024/03/26 07:42:00;;;;;;;8.80;5.72;;;;;;;;;;5040308;28;20045;-76
2024/03/26 07:44:25;;;;;;;9.10;4.90;;;;;;;;;;5043544;28;20028;-75
2024/03/26 07:46:50;;;;;;;7.47;4.78;;;;;;;;;;5047487;28;20084;-75
2024/03/26 07:49:16;;;;;;;6.93;4.47;;;;;;;;;;5044482;28;20056;-76
2024/03/26 07:51:41;;;;;;;7.35;4.60;;;;;;;;;;5047729;28;20040;-75
2024/03/26 07:54:06;;;;;;;9.80;5.63;;;;;;;;;;5051569;28;20079;-76
2024/03/26 07:56:32;;;;;;;9.30;4.28;;;;;;;;;;5046121;28;20041;-76
2024/03/26 07:58:57;;;;;;;6.40;4.68;;;;;;;;;;5047407;28;20040;-76
2024/03/26 08:01:22;;;;;;;6.88;4.55;;;;;;;;;;5042934;28;20060;-75
2024/03/26 08:03:47;;;;;;;7.47;4.25;;;;;;;;;;5045153;28;20094;-76
2024/03/26 08:06:13;;;;;;;8.80;5.10;;;;;;;;;;5046846;28;20391;-76
2024/03/26 08:08:38;;;;;;;9.23;4.97;;;;;;;;;;5048012;28;20025;-75
2024/03/26 08:11:03;;;;;;;7.47;4.40;;;;;;;;;;5046609;28;20078;-76
2024/03/26 08:13:28;;;;;;;7.45;4.65;;;;;;;;;;5050131;28;20094;-76
2024/03/26 08:15:53;;;;;;;7.68;4.82;;;;;;;;;;5046498;28;20108;-76
2024/03/26 08:18:19;;;;;;;8.68;6.03;;;;;;;;;;5042473;28;20446;-76
2024/03/26 08:20:45;;;;;;;10.30;5.30;;;;;;;;;;5026303;28;20029;-76
2024/03/26 08:23:10;;;;;;;6.53;4.30;;;;;;;;;;5044799;28;20035;-76
2024/03/26 08:25:35;;;;;;;7.75;4.40;;;;;;;;;;5044129;28;20033;-76
2024/03/26 08:28:01;;;;;;;6.30;4.13;;;;;;;;;;5047947;28;20071;-76
2024/03/26 08:30:26;;;;;;;7.03;4.15;;;;;;;;;;5041464;28;20029;-76
2024/03/26 08:32:52;;;;;;;7.85;4.47;;;;;;;;;;5033671;28;20032;-76
2024/03/26 08:35:17;;;;;;;7.13;5.00;;;;;;;;;;5048073;28;20036;-76
2024/03/26 08:37:43;;;;;;;6.53;4.15;;;;;;;;;;5048833;28;20039;-76
2024/03/26 08:40:08;;;;;;;5.68;3.38;;;;;;;;;;5048291;28;20452;-76
2024/03/26 08:42:35;;;;;;;6.25;3.75;;;;;;;;;;5045621;28;20069;-76
2024/03/26 08:45:00;;;;;;;6.00;4.22;;;;;;;;;;5047518;28;20024;-76
2024/03/26 08:47:25;;;;;;;13.60;8.43;;;;;;;;;;5044836;28;20091;-76
2024/03/26 08:49:51;;;;;;;19.92;9.90;;;;;;;;;;5041339;28;20033;-76
2024/03/26 08:52:16;;;;;;;14.25;9.82;;;;;;;;;;5044382;28;20477;-76
2024/03/26 08:54:41;;;;;;;14.75;7.97;;;;;;;;;;5042786;28;20033;-76
2024/03/26 08:57:06;;;;;;;10.30;5.85;;;;;;;;;;5042854;28;20040;-76
2024/03/26 08:59:32;;;;;;;6.13;3.38;;;;;;;;;;5043004;28;20044;-76
2024/03/26 09:01:57;;;;;;;12.93;7.55;;;;;;;;;;5034583;28;20040;-76
2024/03/26 09:04:22;;;;;;;12.60;7.63;;;;;;;;;;5043425;28;20485;-76
2024/03/26 09:06:47;;;;;;;9.63;7.40;;;;;;;;;;5049297;28;20540;-76
2024/03/26 09:09:13;;;;;;;10.73;7.55;;;;;;;;;;5043753;28;20021;-76
2024/03/26 09:11:38;;;;;;;8.82;5.80;;;;;;;;;;5041392;28;20026;-76
2024/03/26 09:14:03;;;;;;;11.48;7.53;;;;;;;;;;5043507;28;20029;-76
2024/03/26 09:16:28;;;;;;;9.93;5.18;;;;;;;;;;5048136;28;20029;-76
2024/03/26 09:18:53;;;;;;;6.97;4.82;;;;;;;;;;5025472;28;20390;-76
2024/03/26 09:21:19;;;;;;;8.55;5.60;;;;;;;;;;5043219;28;20477;-76
2024/03/26 09:23:44;;;;;;;6.63;4.50;;;;;;;;;;5043705;28;20045;-76
2024/03/26 09:26:09;;;;;;;4.45;2.40;;;;;;;;;;5042783;28;20067;-76
2024/03/26 09:28:34;;;;;;;5.30;2.75;;;;;;;;;;5041333;28;20079;-76
2024/03/26 09:30:59;;;;;;;5.60;2.55;;;;;;;;;;5040756;28;20037;-76
2024/03/26 09:33:25;;;;;;;5.85;2.67;;;;;;;;;;5043863;28;20082;-76
2024/03/26 09:35:52;;;;;;;5.57;2.97;;;;;;;;;;5039890;28;20048;-76
2024/03/26 09:38:17;;;;;;;4.88;2.85;;;;;;;;;;5042845;28;20463;-76
2024/03/26 09:40:46;;;;;;;3.63;2.10;;;;;;;;;;5041748;28;20029;-76
2024/03/26 09:43:12;;;;;;;4.45;1.95;;;;;;;;;;5042432;28;20041;-76
2024/03/26 09:45:38;;;;;;;4.03;1.60;;;;;;;;;;5045681;28;20029;-76
2024/03/26 09:48:03;;;;;;;10.80;4.93;;;;;;;;;;5044786;28;20485;-76
2024/03/26 09:50:30;;;;;;;11.48;5.38;;;;;;;;;;5045332;28;20529;-76
2024/03/26 09:52:56;;;;;;;8.88;4.18;;;;;;;;;;5042130;28;20505;-76
2024/03/26 09:55:22;;;;;;;12.15;5.28;;;;;;;;;;5046064;28;20033;-76
2024/03/26 09:57:47;;;;;;;5.78;2.53;;;;;;;;;;5043663;28;20047;-76
2024/03/26 10:00:13;;;;;;;3.42;2.03;;;;;;;;;;5041497;28;20025;-76
2024/03/26 10:02:38;;;;;;;3.90;2.05;;;;;;;;;;5048730;28;20031;-76
2024/03/26 10:05:03;;;;;;;4.63;2.15;;;;;;;;;;5047160;28;20569;-76
2024/03/26 10:07:29;;;;;;;4.05;2.22;;;;;;;;;;5045370;28;20111;-76
2024/03/26 10:09:54;;;;;;;4.03;1.88;;;;;;;;;;5042730;28;20112;-76
2024/03/26 10:12:19;;;;;;;3.10;1.65;;;;;;;;;;5029562;28;20033;-76
2024/03/26 10:14:44;;;;;;;2.97;1.95;;;;;;;;;;5049510;28;20113;-76
2024/03/26 10:17:09;;;;;;;4.97;1.90;;;;;;;;;;5043346;28;20035;-76
2024/03/26 10:19:35;;;;;;;3.08;2.08;;;;;;;;;;5039445;28;20112;-76
2024/03/26 10:22:00;;;;;;;3.55;1.92;;;;;;;;;;5043044;28;20111;-76
2024/03/26 10:24:25;;;;;;;3.72;2.08;;;;;;;;;;5040545;28;20083;-76
2024/03/26 10:26:51;;;;;;;4.85;1.80;;;;;;;;;;5043515;28;20056;-76
2024/03/26 10:29:17;;;;;;;4.10;1.67;;;;;;;;;;5046696;28;20021;-76
2024/03/26 10:31:43;;;;;;;8.60;2.10;;;;;;;;;;5040440;28;20493;-76
2024/03/26 10:34:09;;;;;;;7.10;2.58;;;;;;;;;;5046402;28;20107;-76
2024/03/26 10:36:34;;;;;;;8.75;2.28;;;;;;;;;;5039532;28;20463;-76
2024/03/26 10:39:00;;;;;;;5.28;2.00;;;;;;;;;;5039533;28;20033;-76
2024/03/26 10:41:34;;;;;;;3.30;1.67;;;;;;;;;;5041972;28;20453;-76
2024/03/26 10:44:00;;;;;;;3.25;1.70;;;;;;;;;;5042494;28;20431;-76
2024/03/26 10:46:27;;;;;;;4.10;1.70;;;;;;;;;;5040443;28;20032;-76
2024/03/26 10:48:52;;;;;;;4.10;1.63;;;;;;;;;;5041298;28;20114;-76
2024/03/26 10:51:17;;;;;;;3.17;1.70;;;;;;;;;;5040930;28;20117;-76
2024/03/26 10:53:42;;;;;;;4.40;1.60;;;;;;;;;;5026269;28;20028;-76
2024/03/26 10:56:09;;;;;;;3.58;1.90;;;;;;;;;;5040600;28;20074;-76
2024/03/26 10:58:34;;;;;;;4.43;1.85;;;;;;;;;;5041494;28;20070;-76
2024/03/26 11:01:00;;;;;;;4.15;1.67;;;;;;;;;;5045915;28;20058;-76
2024/03/26 11:03:25;;;;;;;6.35;2.17;;;;;;;;;;5049788;28;20033;-76
2024/03/26 11:05:51;;;;;;;4.30;1.83;;;;;;;;;;5042367;28;20044;-75
2024/03/26 11:08:20;;;;;;;2.50;1.42;;;;;;;;;;5041361;28;20033;-76
2024/03/26 11:11:02;;;;;;;4.32;1.35;;;;;;;;;;5040251;28;20053;-76
2024/03/26 11:13:28;;;;;;;;;;;;;;;;;;5045772;28;20029;-76
2024/03/26 11:15:53;;;;;;;2.75;1.45;;;;;;;;;;5042509;28;19909;-76
2024/03/26 11:18:34;;;;;;;4.18;1.63;;;;;;;;;;5023844;28;20406;-76
2024/03/26 11:21:06;;;;;;;4.95;2.03;;;;;;;;;;5038181;28;20444;-76
2024/03/26 11:23:32;;;;;;;3.72;2.03;;;;;;;;;;5041408;28;20033;-75
2024/03/26 11:25:57;;;;;;;4.78;2.58;;;;;;;;;;5044815;28;20117;-75
2024/03/26 11:28:22;;;;;;;5.55;2.60;;;;;;;;;;5047287;28;20025;-75
2024/03/26 11:30:48;;;;;;;4.13;1.83;;;;;;;;;;5047332;28;20028;-75
2024/03/26 11:33:23;;;;;;;4.45;2.00;;;;;;;;;;5014247;28;20047;-75
2024/03/26 11:35:49;;;;;;;2.88;1.67;;;;;;;;;;5042471;28;20048;-75
2024/03/26 11:38:15;;;;;;;3.30;1.90;;;;;;;;;;5043846;28;20037;-75
2024/03/26 11:40:40;;;;;;;5.35;3.25;;;;;;;;;;5023779;28;20037;-76
2024/03/26 11:43:05;;;;;;;4.88;2.75;;;;;;;;;;5041619;28;20114;-76
2024/03/26 11:45:31;;;;;;;5.72;2.63;;;;;;;;;;5027234;28;20037;-76
2024/03/26 11:47:56;;;;;;;7.10;3.40;;;;;;;;;;5026266;28;20127;-76
2024/03/26 11:50:22;;;;;;;6.18;3.03;;;;;;;;;;5031362;28;20090;-76
2024/03/26 11:52:47;;;;;;;4.97;2.60;;;;;;;;;;5039773;28;20223;-76
2024/03/26 11:55:13;;;;;;;6.38;2.47;;;;;;;;;;5044550;28;20035;-75
2024/03/26 11:57:38;;;;;;;3.90;2.15;;;;;;;;;;5038082;28;20049;-76
2024/03/26 12:00:04;;;;;;;5.07;2.80;;;;;;;;;;5041678;28;20023;-76
2024/03/26 12:02:30;;;;;;;3.53;2.10;;;;;;;;;;5038721;28;20029;-76
2024/03/26 12:04:56;;;;;;;5.15;2.72;;;;;;;;;;5041120;28;20071;-76
2024/03/26 12:07:23;;;;;;;6.15;2.47;;;;;;;;;;5044154;28;20045;-76
2024/03/26 12:09:48;;;;;;;3.47;1.42;;;;;;;;;;5041340;28;20120;-76
2024/03/26 12:12:14;;;;;;;3.30;1.63;;;;;;;;;;5040739;28;20112;-76
2024/03/26 12:14:39;;;;;;;3.75;1.65;;;;;;;;;;5044786;28;20051;-76
2024/03/26 12:17:05;;;;;;;4.53;2.00;;;;;;;;;;5038006;28;20029;-76
2024/03/26 12:19:31;;;;;;;4.75;2.28;;;;;;;;;;5040179;28;20029;-76
2024/03/26 12:21:57;;;;;;;4.72;1.90;;;;;;;;;;5039237;28;20098;-76
2024/03/26 12:24:22;;;;;;;5.40;2.40;;;;;;;;;;5042746;28;20127;-76
2024/03/26 12:26:47;;;;;;;4.75;2.50;;;;;;;;;;5039223;28;20032;-76
2024/03/26 12:29:13;;;;;;;5.53;2.50;;;;;;;;;;5039859;28;20028;-76
2024/03/26 12:31:39;;;;;;;7.05;2.38;;;;;;;;;;5039087;28;20497;-76
2024/03/26 12:34:11;;;;;;;4.15;2.38;;;;;;;;;;5045490;28;20033;-76
2024/03/26 12:36:36;;;;;;;3.55;2.20;;;;;;;;;;5045386;28;20385;-76
2024/03/26 12:39:05;;;;;;;4.22;1.90;;;;;;;;;;5050505;28;20119;-76
2024/03/26 12:41:31;;;;;;;4.05;2.30;;;;;;;;;;5042478;28;20025;-76
2024/03/26 12:43:56;;;;;;;3.30;1.90;;;;;;;;;;5046440;28;20031;-76
2024/03/26 12:46:21;;;;;;;5.68;2.80;;;;;;;;;;5051694;28;20071;-76
2024/03/26 12:48:47;;;;;;;3.85;1.95;;;;;;;;;;5040950;28;20033;-76
2024/03/26 12:51:12;;;;;;;4.75;2.60;;;;;;;;;;5045350;28;20079;-76
2024/03/26 12:53:37;;;;;;;5.32;2.50;;;;;;;;;;5046887;28;20095;-76
2024/03/26 12:56:03;;;;;;;4.25;2.15;;;;;;;;;;5047707;28;20032;-76
2024/03/26 12:58:28;;;;;;;4.13;2.55;;;;;;;;;;5042565;28;20083;-76
2024/03/26 13:00:54;;;;;;;4.60;2.33;;;;;;;;;;5050933;28;20104;-76
2024/03/26 13:03:19;;;;;;;4.15;2.47;;;;;;;;;;5031415;28;20052;-76
2024/03/26 13:05:44;;;;;;;4.10;2.45;;;;;;;;;;5043482;28;20486;-74
2024/03/26 13:08:10;;;;;;;3.60;2.20;;;;;;;;;;5045195;28;20849;-74
2024/03/26 13:10:35;;;;;;;4.57;3.03;;;;;;;;;;5039874;28;20272;-74
2024/03/26 13:13:01;;;;;;;3.95;2.60;;;;;;;;;;5041293;28;20558;-74
2024/03/26 13:15:26;;;;;;;4.38;2.40;;;;;;;;;;5044098;28;20056;-74
2024/03/26 13:17:51;;;;;;;5.00;2.55;;;;;;;;;;5048533;28;20537;-74
2024/03/26 13:20:16;;;;;;;4.20;2.70;;;;;;;;;;5029892;28;20037;-74
2024/03/26 13:22:42;;;;;;;4.72;2.60;;;;;;;;;;5045787;28;20038;-74
2024/03/26 13:25:08;;;;;;;7.35;4.00;;;;;;;;;;5048175;28;20073;-74
2024/03/26 13:27:33;;;;;;;7.22;3.28;;;;;;;;;;5025822;28;20029;-74
2024/03/26 13:29:58;;;;;;;4.30;2.65;;;;;;;;;;5041295;28;20401;-74
2024/03/26 13:32:24;;;;;;;3.92;2.60;;;;;;;;;;5042481;28;20029;-74
2024/03/26 13:34:50;;;;;;;4.28;2.80;;;;;;;;;;5046134;28;20037;-74
2024/03/26 13:37:15;;;;;;;6.05;2.55;;;;;;;;;;5042306;28;20033;-74
2024/03/26 13:39:40;;;;;;;5.28;2.92;;;;;;;;;;5039915;28;20026;-74
2024/03/26 13:42:05;;;;;;;4.07;2.92;;;;;;;;;;5041485;28;20078;-74
2024/03/26 13:44:31;;;;;;;5.43;3.00;;;;;;;;;;5043965;28;20112;-74
2024/03/26 13:46:56;;;;;;;7.10;5.57;;;;;;;;;;5041400;28;20063;-74
2024/03/26 13:49:21;;;;;;;7.95;5.78;;;;;;;;;;5042040;28;20071;-74
2024/03/26 13:51:46;;;;;;;8.73;6.10;;;;;;;;;;5042612;28;20457;-74
2024/03/26 13:54:12;;;;;;;9.32;6.43;;;;;;;;;;5040735;28;20557;-74
2024/03/26 13:56:37;;;;;;;7.50;5.68;;;;;;;;;;5041427;28;20033;-74
2024/03/26 13:59:02;;;;;;;8.05;5.10;;;;;;;;;;5040200;28;20041;-74
2024/03/26 14:01:29;;;;;;;7.45;4.45;;;;;;;;;;5043702;28;20071;-74
2024/03/26 14:03:54;;;;;;;8.15;5.60;;;;;;;;;;5045969;28;20396;-74
2024/03/26 14:06:19;;;;;;;5.00;4.00;;;;;;;;;;5043467;28;20574;-74
2024/03/26 14:08:44;;;;;;;7.97;5.50;;;;;;;;;;5044385;28;20264;-74
2024/03/26 14:11:10;;;;;;;5.80;3.63;;;;;;;;;;5045211;28;20048;-75
2024/03/26 14:13:35;;;;;;;4.53;3.10;;;;;;;;;;5046688;28;20346;-74
2024/03/26 14:16:00;;;;;;;5.30;3.87;;;;;;;;;;5045791;28;20121;-74
2024/03/26 14:18:25;;;;;;;5.43;4.07;;;;;;;;;;5044707;28;20288;-74
2024/03/26 14:20:50;;;;;;;5.70;3.30;;;;;;;;;;5024161;28;20275;-74
2024/03/26 14:23:16;;;;;;;4.88;3.67;;;;;;;;;;5040450;28;20691;-74
2024/03/26 14:25:41;;;;;;;5.30;3.20;;;;;;;;;;5047332;28;20170;-74
2024/03/26 14:28:06;;;;;;;4.23;2.77;;;;;;;;;;5047657;28;20029;-74